createdAt,value
2018-03-26T00:01:13.705Z,0.67
2018-03-26T00:03:39.722Z,0.21
2018-03-26T00:06:05.733Z,0.50
2018-03-26T00:08:31.756Z,0.47
2018-03-26T00:10:57.765Z,0.27
2018-03-26T00:13:23.838Z,0.13
2018-03-26T00:15:49.849Z,0.11
2018-03-26T00:18:16.010Z,-0.18
2018-03-26T00:20:42.013Z,0.23
2018-03-26T00:23:08.050Z,0.34
2018-03-26T00:25:34.068Z,0.42
2018-03-26T00:28:00.046Z,0.33
2018-03-26T00:30:26.092Z,0.49
2018-03-26T00:32:52.132Z,0.47
2018-03-26T00:35:18.084Z,0.21
2018-03-26T00:37:44.120Z,0.29
2018-03-26T00:40:10.161Z,0.35
2018-03-26T00:42:36.142Z,0.53
2018-03-26T00:45:02.198Z,0.68
2018-03-26T00:47:28.222Z,0.82
2018-03-26T00:49:54.243Z,0.81
2018-03-26T00:52:20.329Z,0.86
2018-03-26T00:54:46.346Z,0.84
2018-03-26T00:57:12.338Z,0.92
2018-03-26T00:59:38.358Z,0.97
2018-03-26T01:02:04.364Z,0.98
2018-03-26T01:04:30.384Z,1.00
2018-03-26T01:06:56.644Z,0.99
2018-03-26T01:09:22.669Z,0.74
2018-03-26T01:11:48.689Z,0.78
2018-03-26T01:14:14.753Z,0.86
2018-03-26T01:16:40.777Z,0.54
2018-03-26T01:19:06.801Z,0.62
2018-03-26T01:21:32.838Z,0.64
2018-03-26T01:23:58.852Z,0.77
2018-03-26T01:26:24.930Z,0.72
2018-03-26T01:28:50.957Z,0.61
2018-03-26T01:31:16.996Z,0.92
2018-03-26T01:33:43.048Z,0.93
2018-03-26T01:36:09.169Z,0.93
2018-03-26T01:38:35.192Z,0.92
2018-03-26T01:41:01.247Z,0.81
2018-03-26T01:43:27.250Z,0.97
2018-03-26T01:45:53.270Z,1.04
2018-03-26T01:48:19.282Z,1.13
2018-03-26T01:50:45.306Z,1.16
2018-03-26T01:53:11.310Z,1.12
2018-03-26T01:55:37.313Z,0.84
2018-03-26T01:58:03.392Z,0.81
2018-03-26T02:00:29.407Z,0.91
2018-03-26T02:02:55.446Z,1.04
2018-03-26T02:05:21.459Z,1.16
2018-03-26T02:07:47.499Z,0.94
2018-03-26T02:10:13.470Z,1.06
2018-03-26T02:12:39.550Z,1.14
2018-03-26T02:15:05.652Z,1.25
2018-03-26T02:17:31.720Z,1.17
2018-03-26T02:19:57.809Z,0.96
2018-03-26T02:22:23.839Z,0.91
2018-03-26T02:24:49.824Z,0.96
2018-03-26T02:27:15.879Z,1.01
2018-03-26T02:29:41.917Z,0.85
2018-03-26T02:32:07.950Z,0.83
2018-03-26T02:34:33.967Z,0.61
2018-03-26T02:37:00.013Z,0.49
2018-03-26T02:39:26.056Z,0.35
2018-03-26T02:41:52.038Z,0.39
2018-03-26T02:44:18.090Z,0.77
2018-03-26T02:46:44.100Z,0.61
2018-03-26T02:49:10.150Z,0.55
2018-03-26T02:51:36.242Z,0.77
2018-03-26T02:54:02.254Z,0.94
2018-03-26T02:56:28.274Z,0.98
2018-03-26T02:58:54.310Z,0.82
2018-03-26T03:01:20.341Z,0.78
2018-03-26T03:03:46.313Z,0.79
2018-03-26T03:06:12.334Z,0.88
2018-03-26T03:08:38.294Z,0.93
2018-03-26T03:11:04.286Z,0.86
2018-03-26T03:13:30.313Z,0.91
2018-03-26T03:15:56.317Z,1.06
2018-03-26T03:18:22.347Z,1.12
2018-03-26T03:20:48.403Z,1.22
2018-03-26T03:23:14.478Z,1.21
2018-03-26T03:25:40.481Z,1.29
2018-03-26T03:28:06.488Z,1.14
2018-03-26T03:30:32.542Z,1.08
2018-03-26T03:32:58.550Z,1.15
2018-03-26T03:35:24.536Z,1.06
2018-03-26T03:37:50.545Z,1.03
2018-03-26T03:40:16.588Z,0.95
2018-03-26T03:42:42.617Z,1.03
2018-03-26T03:45:08.654Z,1.25
2018-03-26T03:47:34.686Z,1.00
2018-03-26T03:50:00.758Z,1.09
2018-03-26T03:52:26.783Z,1.11
2018-03-26T03:54:52.821Z,1.20
2018-03-26T03:57:18.856Z,1.14
2018-03-26T03:59:44.857Z,1.27
2018-03-26T04:02:10.878Z,1.15
2018-03-26T04:04:36.841Z,1.28
2018-03-26T04:07:02.823Z,1.12
2018-03-26T04:09:28.876Z,1.06
2018-03-26T04:11:54.882Z,1.17
2018-03-26T04:14:20.902Z,1.30
2018-03-26T04:16:46.904Z,1.19
2018-03-26T04:19:12.923Z,0.99
2018-03-26T04:21:38.968Z,1.01
2018-03-26T04:24:04.957Z,1.15
2018-03-26T04:26:30.908Z,1.24
2018-03-26T04:28:56.949Z,1.16
2018-03-26T04:31:22.948Z,1.20
2018-03-26T04:33:49.002Z,1.14
2018-03-26T04:36:15.019Z,1.37
2018-03-26T04:38:40.961Z,1.35
2018-03-26T04:41:07.008Z,1.24
2018-03-26T04:43:32.958Z,1.37
2018-03-26T04:45:58.969Z,1.44
2018-03-26T04:48:25.074Z,1.63
2018-03-26T04:50:51.138Z,1.59
2018-03-26T04:53:17.162Z,1.42
2018-03-26T04:55:43.158Z,1.46
2018-03-26T04:58:09.223Z,1.50
2018-03-26T05:00:35.224Z,1.38
2018-03-26T05:03:01.257Z,1.47
2018-03-26T05:05:27.269Z,1.38
2018-03-26T05:07:53.301Z,1.43
2018-03-26T05:10:19.261Z,1.48
2018-03-26T05:12:45.265Z,1.56
2018-03-26T05:15:11.253Z,1.56
2018-03-26T05:17:37.319Z,1.59
2018-03-26T05:20:03.725Z,1.63
2018-03-26T05:22:29.726Z,1.68
2018-03-26T05:24:55.778Z,1.52
2018-03-26T05:27:21.746Z,1.49
2018-03-26T05:29:47.890Z,1.55
2018-03-26T05:32:13.861Z,1.53
2018-03-26T05:34:39.913Z,1.60
2018-03-26T05:37:05.946Z,1.73
2018-03-26T05:39:31.933Z,1.50
2018-03-26T05:41:57.931Z,1.21
2018-03-26T05:44:23.953Z,1.15
2018-03-26T05:46:49.985Z,1.31
2018-03-26T05:49:16.049Z,1.51
2018-03-26T05:51:42.145Z,1.46
2018-03-26T05:54:08.166Z,1.56
2018-03-26T05:56:34.178Z,1.57
2018-03-26T05:59:00.239Z,1.40
2018-03-26T06:01:26.245Z,1.59
2018-03-26T06:03:52.345Z,1.78
2018-03-26T06:06:18.337Z,1.59
2018-03-26T06:08:44.470Z,1.32
2018-03-26T06:11:10.441Z,1.53
2018-03-26T06:13:36.469Z,1.76
2018-03-26T06:16:02.508Z,1.63
2018-03-26T06:18:28.562Z,1.67
2018-03-26T06:20:54.617Z,1.78
2018-03-26T06:23:20.648Z,1.79
2018-03-26T06:25:46.748Z,1.88
2018-03-26T06:28:12.838Z,1.75
2018-03-26T06:30:38.933Z,1.51
2018-03-26T06:33:05.020Z,1.66
2018-03-26T06:35:31.088Z,1.75
2018-03-26T06:40:59.171Z,1.57
2018-03-26T06:43:25.198Z,1.60
2018-03-26T06:45:51.240Z,1.59
2018-03-26T06:48:17.209Z,1.65
2018-03-26T06:50:43.224Z,1.65
2018-03-26T06:53:09.250Z,1.69
2018-03-26T06:55:35.304Z,1.56
2018-03-26T06:58:01.340Z,1.64
2018-03-26T07:00:27.555Z,1.72
2018-03-26T07:02:53.612Z,1.85
2018-03-26T07:05:19.692Z,1.99
2018-03-26T07:07:45.805Z,2.05
2018-03-26T07:10:11.821Z,2.04
2018-03-26T07:12:37.863Z,2.04
2018-03-26T07:15:04.147Z,2.09
2018-03-26T07:17:30.142Z,2.15
2018-03-26T07:19:56.210Z,2.40
2018-03-26T07:22:22.231Z,2.46
2018-03-26T07:24:48.243Z,2.38
2018-03-26T07:27:14.220Z,2.41
2018-03-26T07:29:40.281Z,2.45
2018-03-26T07:32:06.329Z,2.46
2018-03-26T07:34:32.525Z,2.36
2018-03-26T07:36:58.590Z,2.39
2018-03-26T07:39:24.654Z,2.45
2018-03-26T07:41:50.714Z,2.49
2018-03-26T07:44:16.814Z,2.48
2018-03-26T07:46:42.844Z,2.69
2018-03-26T07:49:08.886Z,2.77
2018-03-26T07:51:34.906Z,2.70
2018-03-26T07:54:00.921Z,2.77
2018-03-26T07:56:26.969Z,2.62
2018-03-26T07:58:52.966Z,2.78
2018-03-26T08:01:19.016Z,2.88
2018-03-26T08:03:45.033Z,2.94
2018-03-26T08:06:11.065Z,3.06
2018-03-26T08:08:37.101Z,3.11
2018-03-26T08:11:03.225Z,3.24
2018-03-26T08:13:29.194Z,3.50
2018-03-26T08:15:55.191Z,3.72
2018-03-26T08:18:21.209Z,3.68
2018-03-26T08:20:47.238Z,3.69
2018-03-26T08:23:13.242Z,3.68
2018-03-26T08:25:39.276Z,3.63
2018-03-26T08:28:05.307Z,3.42
2018-03-26T08:30:31.334Z,3.44
2018-03-26T08:32:57.377Z,3.53
2018-03-26T08:35:23.432Z,3.46
2018-03-26T08:37:49.388Z,3.54
2018-03-26T08:40:15.389Z,3.62
2018-03-26T08:42:41.418Z,3.75
2018-03-26T08:45:07.458Z,3.94
2018-03-26T08:47:33.447Z,3.96
2018-03-26T08:49:59.594Z,4.00
2018-03-26T08:52:25.540Z,3.94
2018-03-26T08:54:51.580Z,3.94
2018-03-26T08:57:17.605Z,3.92
2018-03-26T08:59:43.582Z,3.94
2018-03-26T09:02:09.633Z,4.04
2018-03-26T09:04:35.656Z,4.02
2018-03-26T09:07:01.702Z,3.95
2018-03-26T09:09:27.716Z,3.96
2018-03-26T09:11:53.781Z,4.03
2018-03-26T09:14:19.765Z,4.16
2018-03-26T09:16:45.793Z,4.14
2018-03-26T09:19:11.806Z,4.22
2018-03-26T09:21:37.909Z,4.29
2018-03-26T09:24:04.015Z,4.44
2018-03-26T09:26:30.039Z,4.57
2018-03-26T09:28:56.085Z,4.82
2018-03-26T09:31:22.152Z,4.98
2018-03-26T09:33:48.201Z,5.01
2018-03-26T09:36:14.280Z,5.03
2018-03-26T09:38:40.302Z,5.12
2018-03-26T09:41:06.345Z,5.28
2018-03-26T09:43:32.374Z,5.45
2018-03-26T09:45:58.425Z,5.45
2018-03-26T09:48:24.422Z,5.58
2018-03-26T09:50:50.464Z,5.64
2018-03-26T09:53:16.560Z,5.68
2018-03-26T09:55:42.548Z,6.03
2018-03-26T09:58:08.521Z,6.18
2018-03-26T10:00:40.818Z,6.25
2018-03-26T10:03:06.848Z,6.52
2018-03-26T10:05:32.885Z,6.55
2018-03-26T10:07:58.872Z,6.69
2018-03-26T10:10:24.885Z,6.70
2018-03-26T10:12:50.921Z,6.69
2018-03-26T10:15:16.985Z,6.81
2018-03-26T10:17:43.057Z,6.96
2018-03-26T10:20:09.159Z,7.23
2018-03-26T10:22:35.228Z,7.23
2018-03-26T10:25:08.233Z,7.30
2018-03-26T10:30:07.080Z,7.22
2018-03-26T10:32:33.078Z,7.14
2018-03-26T10:34:59.109Z,7.33
2018-03-26T10:37:25.181Z,7.31
2018-03-26T10:39:51.198Z,7.50
2018-03-26T10:42:17.205Z,7.56
2018-03-26T10:44:43.224Z,7.63
2018-03-26T10:47:09.254Z,7.93
2018-03-26T10:49:35.330Z,7.82
2018-03-26T10:52:01.317Z,7.77
2018-03-26T10:54:27.519Z,7.81
2018-03-26T10:56:53.600Z,7.85
2018-03-26T10:59:19.638Z,7.94
2018-03-26T11:01:45.729Z,8.08
2018-03-26T11:04:11.784Z,7.89
2018-03-26T11:06:37.782Z,8.01
2018-03-26T11:09:03.777Z,8.07
2018-03-26T11:11:29.841Z,8.31
2018-03-26T11:13:55.866Z,8.53
2018-03-26T11:16:21.948Z,8.51
2018-03-26T11:18:48.089Z,8.54
2018-03-26T11:21:14.212Z,8.82
2018-03-26T11:23:40.244Z,8.94
2018-03-26T11:26:06.278Z,8.99
2018-03-26T11:28:32.281Z,8.92
2018-03-26T11:30:58.357Z,8.82
2018-03-26T11:33:24.386Z,8.83
2018-03-26T11:35:50.468Z,8.96
2018-03-26T11:38:16.558Z,9.23
2018-03-26T11:40:42.569Z,9.22
2018-03-26T11:43:09.142Z,9.42
2018-03-26T11:45:35.171Z,9.65
2018-03-26T11:48:01.183Z,9.75
2018-03-26T11:50:27.214Z,9.90
2018-03-26T11:52:53.241Z,9.84
2018-03-26T11:55:19.321Z,9.92
2018-03-26T11:57:45.346Z,10.05
2018-03-26T12:00:11.376Z,10.30
2018-03-26T12:02:37.393Z,10.02
2018-03-26T12:05:04.176Z,9.71
2018-03-26T12:07:30.174Z,9.82
2018-03-26T12:09:56.157Z,9.73
2018-03-26T12:12:22.181Z,9.99
2018-03-26T12:14:48.249Z,9.95
2018-03-26T12:17:14.275Z,9.50
2018-03-26T12:19:52.611Z,9.41
2018-03-26T12:22:18.645Z,9.37
2018-03-26T12:24:55.637Z,9.25
2018-03-26T12:27:21.717Z,9.70
2018-03-26T12:30:00.101Z,9.61
2018-03-26T12:32:26.183Z,9.52
2018-03-26T12:35:04.659Z,9.51
2018-03-26T12:37:30.715Z,9.76
2018-03-26T12:39:56.851Z,9.72
2018-03-26T12:42:22.927Z,9.59
2018-03-26T12:45:01.060Z,9.60
2018-03-26T12:47:27.085Z,9.23
2018-03-26T12:49:53.349Z,9.31
2018-03-26T12:52:31.522Z,9.05
2018-03-26T12:54:57.532Z,9.12
2018-03-26T12:57:35.779Z,9.30
2018-03-26T13:02:20.078Z,9.25
2018-03-26T13:04:46.124Z,9.59
2018-03-26T13:07:12.360Z,9.57
2018-03-26T13:09:38.466Z,9.26
2018-03-26T13:12:04.547Z,9.16
2018-03-26T13:14:30.598Z,9.07
2018-03-26T13:16:57.197Z,8.92
2018-03-26T13:19:23.243Z,8.91
2018-03-26T13:21:49.262Z,8.91
2018-03-26T13:24:15.302Z,9.07
2018-03-26T13:26:41.354Z,9.09
2018-03-26T13:29:07.407Z,9.01
2018-03-26T13:31:33.460Z,9.09
2018-03-26T13:33:59.491Z,9.00
2018-03-26T13:36:25.567Z,9.08
2018-03-26T13:38:51.626Z,9.36
2018-03-26T13:44:08.481Z,9.60
2018-03-26T13:49:47.382Z,9.51
2018-03-26T13:52:13.500Z,9.53
2018-03-26T13:54:39.544Z,9.46
2018-03-26T13:57:05.653Z,9.45
2018-03-26T13:59:31.652Z,9.59
2018-03-26T14:01:57.690Z,9.33
2018-03-26T14:04:23.692Z,9.33
2018-03-26T14:06:49.738Z,9.61
2018-03-26T14:09:27.896Z,9.39
2018-03-26T14:12:06.250Z,9.23
2018-03-26T14:14:44.406Z,9.19
2018-03-26T14:17:22.614Z,9.16
2018-03-26T14:19:48.684Z,9.26
2018-03-26T14:22:14.723Z,8.94
2018-03-26T14:24:40.766Z,9.01
2018-03-26T14:27:06.827Z,9.01
2018-03-26T14:29:32.904Z,9.16
2018-03-26T14:31:58.932Z,9.17
2018-03-26T14:34:24.990Z,8.98
2018-03-26T14:36:51.037Z,9.14
2018-03-26T14:39:17.066Z,9.16
2018-03-26T14:41:43.094Z,9.14
2018-03-26T14:44:09.169Z,9.20
2018-03-26T14:46:35.214Z,9.09
2018-03-26T14:49:01.304Z,9.03
2018-03-26T14:51:27.328Z,8.97
2018-03-26T14:53:53.434Z,9.00
2018-03-26T14:56:19.412Z,9.14
2018-03-26T14:58:45.451Z,9.00
2018-03-26T15:01:11.528Z,9.00
2018-03-26T15:03:37.571Z,9.01
2018-03-26T15:06:03.697Z,8.92
2018-03-26T15:08:29.751Z,8.93
2018-03-26T15:10:55.818Z,8.83
2018-03-26T15:13:21.846Z,8.80
2018-03-26T15:15:47.888Z,8.78
2018-03-26T15:18:13.952Z,8.86
2018-03-26T15:20:39.991Z,8.85
2018-03-26T15:23:06.110Z,8.77
2018-03-26T15:25:32.176Z,8.89
2018-03-26T15:27:58.397Z,8.77
2018-03-26T15:30:24.509Z,8.73
2018-03-26T15:32:50.506Z,8.63
2018-03-26T15:35:16.594Z,8.59
2018-03-26T15:37:42.666Z,8.57
2018-03-26T15:40:08.731Z,8.66
2018-03-26T15:42:34.773Z,8.56
2018-03-26T15:45:00.935Z,8.55
2018-03-26T15:47:26.990Z,8.16
2018-03-26T15:49:53.069Z,8.47
2018-03-26T15:52:19.121Z,8.32
2018-03-26T15:54:45.138Z,8.35
2018-03-26T15:57:11.157Z,8.33
2018-03-26T15:59:37.277Z,8.41
2018-03-26T16:02:03.134Z,8.24
2018-03-26T16:04:29.200Z,8.22
2018-03-26T16:06:55.347Z,8.26
2018-03-26T16:09:21.388Z,8.09
2018-03-26T16:11:47.411Z,8.16
2018-03-26T16:14:13.427Z,8.12
2018-03-26T16:16:39.468Z,8.09
2018-03-26T16:19:05.817Z,8.03
2018-03-26T16:21:31.852Z,7.95
2018-03-26T16:23:59.025Z,8.00
2018-03-26T16:26:25.294Z,7.90
2018-03-26T16:28:51.432Z,7.80
2018-03-26T16:31:17.446Z,7.68
2018-03-26T16:33:43.900Z,7.65
2018-03-26T16:36:09.924Z,7.57
2018-03-26T16:38:36.017Z,7.47
2018-03-26T16:41:02.152Z,7.46
2018-03-26T16:43:28.692Z,7.42
2018-03-26T16:45:54.764Z,7.45
2018-03-26T16:48:20.818Z,7.39
2018-03-26T16:50:46.899Z,7.32
2018-03-26T16:53:12.985Z,7.31
2018-03-26T16:55:39.026Z,7.31
2018-03-26T16:58:05.100Z,7.28
2018-03-26T17:00:31.562Z,7.29
2018-03-26T17:02:57.704Z,7.33
2018-03-26T17:05:23.764Z,7.20
2018-03-26T17:07:49.848Z,7.20
2018-03-26T17:10:15.913Z,7.21
2018-03-26T17:12:41.996Z,7.22
2018-03-26T17:15:08.029Z,7.15
2018-03-26T17:17:34.073Z,7.15
2018-03-26T17:20:00.157Z,7.10
2018-03-26T17:22:26.204Z,7.03
2018-03-26T17:24:52.235Z,7.03
2018-03-26T17:27:18.286Z,7.03
2018-03-26T17:29:44.318Z,6.99
2018-03-26T17:32:10.382Z,6.93
2018-03-26T17:34:36.473Z,6.95
2018-03-26T17:37:02.493Z,6.98
2018-03-26T17:39:28.573Z,6.95
2018-03-26T17:41:55.485Z,7.01
2018-03-26T17:44:21.606Z,6.99
2018-03-26T17:46:47.662Z,7.06
2018-03-26T17:49:13.706Z,7.11
2018-03-26T17:51:39.756Z,7.21
2018-03-26T17:54:05.857Z,7.28
2018-03-26T17:56:31.885Z,7.04
2018-03-26T17:58:57.968Z,7.21
2018-03-26T18:01:24.081Z,7.15
2018-03-26T18:03:50.154Z,7.02
2018-03-26T18:06:16.690Z,6.89
2018-03-26T18:08:42.760Z,6.79
2018-03-26T18:11:08.880Z,6.76
2018-03-26T18:13:35.092Z,6.71
2018-03-26T18:16:01.134Z,6.71
2018-03-26T18:18:27.145Z,6.75
2018-03-26T18:20:53.221Z,6.75
2018-03-26T18:23:19.259Z,6.70
2018-03-26T18:25:45.289Z,6.65
2018-03-26T18:28:11.384Z,6.64
2018-03-26T18:30:37.461Z,6.58
2018-03-26T18:33:03.477Z,6.54
2018-03-26T18:35:29.518Z,6.54
2018-03-26T18:37:55.579Z,6.60
2018-03-26T18:40:21.655Z,6.50
2018-03-26T18:42:47.693Z,6.52
2018-03-26T18:45:13.702Z,6.52
2018-03-26T18:47:39.789Z,6.47
2018-03-26T18:50:05.841Z,6.51
2018-03-26T18:52:31.905Z,6.51
2018-03-26T18:54:57.966Z,6.49
2018-03-26T18:57:24.266Z,6.71
2018-03-26T18:59:50.332Z,6.78
2018-03-26T19:02:16.420Z,6.66
2018-03-26T19:04:42.516Z,6.65
2018-03-26T19:07:08.732Z,6.86
2018-03-26T19:09:34.777Z,6.70
2018-03-26T19:12:00.841Z,6.34
2018-03-26T19:14:26.967Z,6.23
2018-03-26T19:16:53.112Z,6.33
2018-03-26T19:19:19.186Z,6.40
2018-03-26T19:21:45.260Z,6.35
2018-03-26T19:24:11.350Z,6.44
2018-03-26T19:26:37.437Z,6.50
2018-03-26T19:29:03.461Z,6.44
2018-03-26T19:31:29.542Z,6.32
2018-03-26T19:33:55.562Z,6.41
2018-03-26T19:36:21.633Z,6.44
2018-03-26T19:38:47.655Z,6.23
2018-03-26T19:41:13.756Z,6.16
2018-03-26T19:43:39.824Z,6.34
2018-03-26T19:46:05.945Z,6.27
2018-03-26T19:48:32.072Z,6.22
2018-03-26T19:50:58.193Z,6.15
2018-03-26T19:53:24.731Z,6.06
2018-03-26T19:55:50.747Z,6.05
2018-03-26T19:58:17.024Z,6.05
2018-03-26T20:00:48.691Z,5.93
2018-03-26T20:03:18.323Z,5.86
2018-03-26T20:05:44.432Z,5.86
2018-03-26T20:08:10.637Z,5.93
2018-03-26T20:10:36.745Z,5.85
2018-03-26T20:13:02.925Z,5.80
2018-03-26T20:15:29.261Z,5.46
2018-03-26T20:17:55.539Z,5.17
2018-03-26T20:20:21.744Z,5.19
2018-03-26T20:22:48.099Z,5.09
2018-03-26T20:25:14.174Z,5.15
2018-03-26T20:27:40.198Z,5.17
2018-03-26T20:30:06.240Z,5.12
2018-03-26T20:32:32.938Z,5.24
2018-03-26T20:34:59.054Z,5.26
2018-03-26T20:37:25.086Z,5.27
2018-03-26T20:39:51.286Z,5.12
2018-03-26T20:42:17.333Z,5.04
2018-03-26T20:44:43.350Z,5.06
2018-03-26T20:47:09.507Z,5.13
2018-03-26T20:49:35.488Z,5.13
2018-03-26T20:52:01.513Z,5.16
2018-03-26T20:54:27.555Z,5.23
2018-03-26T20:56:53.604Z,5.11
2018-03-26T20:59:19.675Z,5.02
2018-03-26T21:01:45.750Z,5.02
2018-03-26T21:04:11.803Z,5.13
2018-03-26T21:06:37.799Z,5.06
2018-03-26T21:09:03.815Z,4.78
2018-03-26T21:11:29.843Z,4.50
2018-03-26T21:13:56.363Z,4.56
2018-03-26T21:16:22.393Z,4.51
2018-03-26T21:18:48.431Z,4.49
2018-03-26T21:21:14.569Z,4.34
2018-03-26T21:23:40.714Z,4.40
2018-03-26T21:26:06.745Z,4.46
2018-03-26T21:28:32.825Z,4.43
2018-03-26T21:30:58.878Z,4.35
2018-03-26T21:33:24.920Z,4.32
2018-03-26T21:35:50.960Z,4.22
2018-03-26T21:38:17.076Z,4.17
2018-03-26T21:40:43.111Z,4.11
2018-03-26T21:43:09.186Z,4.12
2018-03-26T21:45:35.254Z,4.15
2018-03-26T21:48:01.304Z,4.21
2018-03-26T21:50:27.298Z,4.15
2018-03-26T21:52:53.347Z,4.13
2018-03-26T21:55:19.362Z,4.13
2018-03-26T21:57:45.414Z,4.10
2018-03-26T22:00:16.330Z,4.13
2018-03-26T22:02:42.402Z,4.13
2018-03-26T22:05:08.429Z,4.15
2018-03-26T22:07:34.497Z,4.22
2018-03-26T22:10:00.574Z,4.14
2018-03-26T22:12:26.580Z,3.97
2018-03-26T22:14:52.622Z,3.93
2018-03-26T22:17:18.691Z,3.64
2018-03-26T22:19:44.705Z,3.56
2018-03-26T22:22:11.344Z,3.63
2018-03-26T22:24:37.438Z,3.78
2018-03-26T22:27:03.491Z,3.83
2018-03-26T22:29:29.545Z,3.74
2018-03-26T22:31:55.574Z,3.72
2018-03-26T22:34:24.570Z,3.67
2018-03-26T22:36:50.801Z,3.40
2018-03-26T22:39:18.409Z,3.40
2018-03-26T22:41:44.616Z,3.63
2018-03-26T22:44:10.945Z,3.59
2018-03-26T22:56:23.059Z,3.05
2018-03-26T22:58:49.943Z,3.03
2018-03-26T23:01:16.138Z,2.82
2018-03-26T23:03:42.280Z,2.77
2018-03-26T23:06:08.740Z,2.75
2018-03-26T23:08:34.857Z,2.64
2018-03-26T23:11:01.091Z,2.73
2018-03-26T23:13:27.273Z,2.91
2018-03-26T23:15:53.424Z,2.95
2018-03-26T23:18:19.815Z,3.00
2018-03-26T23:20:46.222Z,3.00
2018-03-26T23:23:12.345Z,3.02
2018-03-26T23:25:38.514Z,2.92
2018-03-26T23:28:04.682Z,2.76
2018-03-26T23:30:30.865Z,2.74
2018-03-26T23:32:57.012Z,2.55
2018-03-26T23:35:23.172Z,2.66
2018-03-26T23:37:49.331Z,2.49
2018-03-26T23:40:15.452Z,2.48
2018-03-26T23:42:41.575Z,2.57
2018-03-26T23:45:07.704Z,2.71
2018-03-26T23:47:33.774Z,2.64
2018-03-26T23:49:59.885Z,2.52
2018-03-26T23:52:25.991Z,2.60
2018-03-26T23:54:52.054Z,2.42
2018-03-26T23:57:18.141Z,2.48
2018-03-26T23:59:44.244Z,2.54
